createdAt,value
2023-04-26T08:58:29.015Z,10.90
2023-04-26T09:00:57.116Z,10.90
2023-04-26T09:03:26.400Z,10.70
2023-04-26T09:05:56.323Z,10.50
2023-04-26T09:08:24.488Z,10.40
2023-04-26T09:10:52.381Z,10.40
2023-04-26T09:13:20.293Z,10.20
2023-04-26T09:15:49.968Z,10.70
2023-04-26T13:22:43.450Z,12.10
2023-04-26T13:25:13.154Z,12.10
2023-04-26T13:27:41.068Z,12.10
2023-04-26T13:30:10.177Z,12.20
2023-04-26T13:32:38.078Z,11.90
2023-04-26T13:35:08.106Z,12.00
2023-04-26T13:37:36.128Z,12.20
2023-04-26T13:40:05.254Z,12.40
2023-04-26T13:42:33.103Z,12.00
2023-04-26T13:45:06.063Z,11.80
2023-04-26T13:47:33.939Z,11.60
2023-04-26T13:50:02.060Z,11.50
2023-04-26T13:52:31.321Z,11.50
2023-04-26T13:54:59.223Z,11.60
2023-04-26T13:57:27.067Z,11.50
2023-04-26T13:59:54.896Z,11.60
2023-04-26T14:02:24.513Z,11.80
2023-04-26T14:04:52.857Z,11.90
2023-04-26T14:07:21.065Z,12.00
2023-04-26T14:09:52.537Z,12.10
2023-04-26T14:12:20.477Z,12.20
2023-04-26T14:14:48.337Z,12.70
2023-04-26T14:17:16.198Z,12.90
2023-04-26T15:16:42.852Z,12.10
2023-04-26T15:19:12.050Z,12.10
2023-04-26T15:21:40.132Z,12.00
2023-04-26T15:24:08.999Z,11.80
2023-04-26T15:26:36.839Z,11.80
2023-04-26T15:29:04.695Z,11.70
2023-04-26T15:31:32.585Z,11.70
2023-04-26T15:34:00.470Z,11.50
2023-04-26T15:36:29.631Z,11.10
2023-04-26T15:38:57.440Z,11.20
2023-04-26T15:41:25.326Z,11.30
2023-04-26T15:43:55.158Z,11.30
2023-04-26T15:46:23.224Z,11.10
2023-04-26T15:48:51.701Z,11.10
2023-04-26T15:51:19.657Z,11.20
2023-04-26T15:53:51.048Z,11.20
2023-04-26T15:56:19.179Z,11.00
2023-04-26T15:58:47.827Z,10.80
2023-04-26T16:01:16.210Z,10.70
2023-04-26T16:03:47.425Z,10.80
2023-04-26T16:06:16.003Z,10.80
2023-04-26T16:08:44.179Z,10.90
2023-04-26T16:11:13.445Z,10.90
2023-04-26T16:13:41.347Z,10.80
2023-04-26T16:16:10.592Z,10.70
2023-04-26T16:18:39.650Z,10.70
2023-04-26T16:21:09.344Z,10.70
2023-04-26T16:23:37.801Z,10.40
2023-04-26T16:28:35.251Z,10.30
2023-04-26T16:31:03.170Z,10.30
2023-04-26T16:33:31.303Z,10.20
2023-04-26T16:35:59.135Z,10.10
2023-04-26T16:38:27.055Z,10.10
2023-04-26T16:40:57.843Z,10.10
2023-04-26T16:43:26.788Z,10.20
2023-04-26T16:46:04.095Z,10.30
2023-04-26T16:48:33.091Z,10.10
2023-04-26T16:51:01.938Z,10.20
2023-04-26T16:53:30.651Z,10.20
2023-04-26T16:55:58.667Z,10.20
2023-04-26T16:58:26.905Z,10.10
2023-04-26T17:00:54.768Z,9.90
2023-04-26T17:03:24.735Z,9.70
2023-04-26T17:05:52.916Z,9.60
2023-04-26T17:08:21.956Z,9.50
2023-04-26T17:10:49.978Z,9.50
2023-04-26T17:13:18.005Z,9.50
2023-04-26T17:15:46.090Z,9.60
2023-04-26T17:18:13.974Z,9.50
2023-04-26T17:20:43.202Z,9.50
2023-04-26T17:23:11.683Z,9.50
2023-04-26T17:25:39.544Z,9.50
2023-04-26T17:28:07.418Z,9.40
2023-04-26T17:30:35.248Z,9.40
2023-04-26T17:33:03.485Z,9.40
2023-04-26T17:35:31.409Z,9.40
2023-04-26T17:38:00.717Z,9.30
2023-04-26T17:40:28.611Z,9.30
2023-04-26T17:42:56.473Z,9.20
2023-04-26T17:45:24.517Z,9.10
2023-04-26T17:47:52.426Z,9.00
2023-04-26T17:50:21.076Z,9.00
2023-04-26T17:52:49.034Z,9.00
2023-04-26T17:55:18.517Z,9.00
2023-04-26T17:57:46.656Z,9.00
2023-04-26T18:00:15.639Z,9.00
2023-04-26T18:02:43.929Z,9.00
2023-04-26T18:05:13.302Z,9.00
2023-04-26T18:07:41.283Z,9.00
2023-04-26T18:10:10.381Z,9.00
2023-04-26T18:12:39.799Z,9.00
2023-04-26T18:15:09.000Z,9.00
2023-04-26T18:17:37.103Z,8.90
2023-04-26T18:20:05.628Z,8.90
2023-04-26T18:22:33.507Z,8.90
2023-04-26T18:25:01.422Z,8.80
2023-04-26T18:27:29.280Z,8.80
2023-04-26T18:29:58.624Z,8.70
2023-04-26T18:32:26.690Z,8.70
2023-04-26T18:34:54.592Z,8.70
2023-04-26T18:37:22.456Z,8.60
2023-04-26T18:39:50.301Z,8.60
2023-04-26T18:42:18.153Z,8.50
2023-04-26T18:44:46.003Z,8.50
2023-04-26T18:47:15.191Z,8.50
2023-04-26T18:49:43.024Z,8.50
2023-04-26T18:52:10.977Z,8.50
2023-04-26T18:54:39.328Z,8.40
2023-04-26T18:57:07.198Z,8.40
2023-04-26T18:59:35.025Z,8.40
2023-04-26T19:02:04.220Z,8.40
2023-04-26T19:04:33.664Z,8.40
2023-04-26T19:07:01.744Z,8.40
2023-04-26T19:09:35.126Z,8.30
2023-04-26T19:12:11.035Z,8.20
2023-04-26T19:14:38.832Z,8.20
2023-04-26T19:17:07.411Z,8.30
2023-04-26T19:19:36.615Z,8.20
2023-04-26T19:22:04.468Z,8.20
2023-04-26T19:24:32.358Z,8.20
2023-04-26T19:27:00.739Z,8.20
2023-04-26T19:29:28.581Z,8.10
2023-04-26T19:31:56.724Z,8.20
2023-04-26T19:34:24.780Z,8.20
2023-04-26T19:36:53.977Z,8.20
2023-04-26T19:39:23.397Z,8.20
2023-04-26T19:41:51.731Z,8.30
2023-04-26T19:44:20.254Z,8.20
2023-04-26T19:46:48.183Z,8.20
2023-04-26T19:49:16.231Z,8.20
2023-04-26T19:51:44.048Z,8.20
2023-04-26T19:54:13.249Z,8.20
2023-04-26T19:56:41.081Z,8.20
2023-04-26T19:59:09.338Z,8.10
2023-04-26T20:01:37.252Z,8.00
2023-04-26T20:04:05.350Z,8.00
2023-04-26T20:06:34.068Z,8.00
2023-04-26T20:09:01.885Z,8.00
2023-04-26T20:11:31.418Z,8.00
2023-04-26T20:13:59.244Z,8.00
2023-04-26T20:16:27.177Z,8.00
2023-04-26T20:18:55.030Z,7.90
2023-04-26T20:21:22.875Z,7.90
2023-04-26T20:23:50.710Z,7.90
2023-04-26T20:26:18.608Z,7.80
2023-04-26T20:31:17.312Z,7.70
2023-04-26T20:33:45.442Z,7.60
2023-04-26T20:36:13.292Z,7.70
2023-04-26T20:38:41.182Z,7.70
2023-04-26T20:41:09.009Z,7.60
2023-04-26T20:43:36.812Z,7.60
2023-04-26T20:46:06.147Z,7.60
2023-04-26T20:48:34.014Z,7.50
2023-04-26T20:51:02.812Z,7.50
2023-04-26T20:53:30.958Z,7.50
2023-04-26T20:55:58.918Z,7.40
2023-04-26T20:58:26.857Z,7.40
2023-04-26T21:00:55.535Z,7.40
2023-04-26T21:03:25.193Z,7.30
2023-04-26T21:05:53.073Z,7.30
2023-04-26T21:08:20.897Z,7.30
2023-04-26T21:10:48.746Z,7.10
2023-04-26T21:13:16.588Z,7.20
2023-04-26T21:15:44.475Z,7.10
